Baxter, Minnesota
Current Conditions -  °F | °C
As of 10:53 PM on Friday 28 Nov 2014 (Local Time) from KBRD Reporting Station
Overcast Overcast  
Wind Chill:   Ceiling: 1200
Heat Index: 17°   Visibility: 8mi
Dew Point: 13°   Wind: 6mph
Humidity: 84%   Direction: 130°SE
Pressure: 29.67"   Gusts: NA
Location:  46.34°N, 94.29°W
Report Text: KBRD 290453Z AUTO 13005KT 8SM OVC012 M08/M11 A2967 RMK AO2 SLP071 T10831106
Loading
Personal Weather Stations






























Interactive Weather Map New forecast layout! Learn more

10-Day Weather Forecast

Advertisements
Track Severe Weather on mobile